Date,TemperatureHighF,TemperatureAvgF,TemperatureLowF,DewpointHighF,DewpointAvgF,DewpointLowF,HumidityHigh,HumidityAvg,HumidityLow,PressureMaxIn,PressureMinIn,WindSpeedMaxMPH,WindSpeedAvgMPH,GustSpeedMaxMPH,PrecipitationSumIn
2013-1-1,39.0,27.4,20.0,32.0,24.8,19.0,99,91,62,30.22,30.15,1,0,2,0.00
2013-1-2,49.0,32.2,23.0,27.0,21.5,3.0,96,70,15,30.18,30.08,2,1,6,0.00
2013-1-3,51.0,36.9,24.0,27.0,16.5,1.0,83,49,13,30.25,30.11,2,1,6,0.00
2013-1-4,45.0,30.0,22.0,23.0,18.6,8.0,86,67,22,30.32,30.25,1,0,3,0.00
2013-1-5,49.0,31.7,24.0,28.0,21.9,15.0,85,70,26,30.35,30.22,1,0,2,0.00
2013-1-6,33.0,30.4,27.0,31.0,26.7,20.0,100,87,68,30.25,29.80,1,0,3,0.00
2013-1-7,44.0,36.6,26.0,27.0,17.5,10.0,98,50,24,30.15,29.94,2,1,11,0.00
2013-1-8,54.0,36.4,29.0,32.0,27.3,20.0,94,73,27,30.28,30.15,1,0,5,0.00
2013-1-9,53.0,37.7,32.0,35.0,31.8,29.0,96,81,39,30.32,30.11,1,0,2,0.00
2013-1-10,34.0,29.9,20.0,34.0,28.7,18.0,100,96,77,30.11,29.87,2,1,6,0.00
2013-1-11,29.0,21.9,16.0,22.0,17.4,14.0,96,84,57,30.08,29.73,1,0,3,0.00
2013-1-12,31.0,21.6,15.0,18.0,12.9,6.0,95,73,36,30.08,29.97,1,0,4,0.00
2013-1-13,32.0,23.3,13.0,15.0,11.1,3.0,92,63,31,30.08,30.01,1,0,4,0.00
2013-1-14,31.0,24.3,11.0,12.0,6.0,-7.0,84,48,24,30.25,30.04,2,1,5,0.00
2013-1-15,45.0,32.3,18.0,22.0,15.1,6.0,75,52,29,30.39,30.25,2,1,7,0.00
2013-1-16,48.0,45.0,40.0,23.0,21.3,20.0,46,39,34,30.39,30.35,2,1,5,0.00
2013-1-17,50.0,38.3,32.0,27.0,25.4,24.0,73,61,36,30.32,30.25,1,0,1,0.00
2013-1-18,58.0,37.8,29.0,29.0,23.6,18.0,78,61,22,30.32,30.25,1,0,3,0.00
2013-1-19,57.0,39.8,29.0,27.0,21.6,14.0,79,54,19,30.35,30.28,1,0,3,0.00
2013-1-20,58.0,39.0,28.0,25.0,18.8,11.0,67,49,16,30.32,30.22,1,0,3,0.00
2013-1-21,58.0,39.8,29.0,24.0,16.3,5.0,62,44,12,30.28,30.22,1,0,3,0.00
2013-1-22,63.0,41.9,28.0,29.0,21.7,10.0,69,50,12,30.32,30.25,1,0,3,0.00
2013-1-23,59.0,47.8,39.0,36.0,32.1,27.0,78,58,30,30.32,30.25,2,1,7,0.00
2013-1-24,51.0,45.5,41.0,50.0,43.5,36.0,98,93,69,30.32,30.22,1,0,5,0.00
2013-1-25,49.0,45.8,43.0,48.0,45.1,43.0,99,97,95,30.28,30.11,1,0,3,0.00
2013-1-26,45.0,43.8,42.0,45.0,43.6,41.0,99,99,99,30.11,30.01,1,0,2,0.00
2013-1-27,42.0,35.5,29.0,41.0,34.1,29.0,100,95,82,30.08,29.97,1,1,3,0.00
2013-1-28,31.0,27.5,22.0,29.0,24.4,21.0,100,89,71,30.08,29.97,1,0,4,0.00
2013-1-29,44.0,30.0,21.0,33.0,25.3,20.0,99,85,48,0.00,40.00,2,1,4,0.00
2013-1-30,51.0,39.6,29.0,37.0,31.0,24.0,98,74,46,0.00,40.00,2,1,7,0.00
2013-1-31,55.0,42.5,32.0,37.0,31.9,25.0,93,69,39,0.00,40.00,1,0,4,0.00